sensor_id;sensor_type;location;lat;lon;timestamp;pressure;altitude;pressure_sealevel;temperature;humidity
9261;BME280;4667;42.726;23.252;2023-01-29T00:02:41;95375.53;;;0.78;nan
9261;BME280;4667;42.726;23.252;2023-01-29T00:17:22;95378.09;;;0.66;nan
9261;BME280;4667;42.726;23.252;2023-01-29T00:24:47;95381.81;;;0.82;nan
9261;BME280;4667;42.726;23.252;2023-01-29T00:27:15;95384.16;;;0.83;nan
9261;BME280;4667;42.726;23.252;2023-01-29T00:39:50;95390.25;;;0.84;nan
9261;BME280;4667;42.726;23.252;2023-01-29T01:07:27;95387.06;;;0.61;nan
9261;BME280;4667;42.726;23.252;2023-01-29T02:27:09;95394.06;;;0.83;nan
9261;BME280;4667;42.726;23.252;2023-01-29T02:37:38;95396.44;;;0.76;nan
9261;BME280;4667;42.726;23.252;2023-01-29T02:40:16;95399.03;;;0.85;nan
9261;BME280;4667;42.726;23.252;2023-01-29T02:42:59;95405.75;;;0.91;nan
9261;BME280;4667;42.726;23.252;2023-01-29T02:45:37;95402.91;;;0.96;nan
9261;BME280;4667;42.726;23.252;2023-01-29T02:48:16;95401.81;;;0.97;nan
9261;BME280;4667;42.726;23.252;2023-01-29T02:50:47;95406.41;;;0.88;nan
9261;BME280;4667;42.726;23.252;2023-01-29T02:53:19;95406.00;;;0.77;nan
9261;BME280;4667;42.726;23.252;2023-01-29T02:55:54;95408.38;;;0.61;nan
9261;BME280;4667;42.726;23.252;2023-01-29T02:58:29;95403.34;;;0.68;nan
9261;BME280;4667;42.726;23.252;2023-01-29T03:01:03;95411.34;;;0.68;nan
9261;BME280;4667;42.726;23.252;2023-01-29T03:03:36;95402.88;;;0.66;nan
9261;BME280;4667;42.726;23.252;2023-01-29T03:06:07;95410.75;;;0.63;nan
9261;BME280;4667;42.726;23.252;2023-01-29T03:13:45;95410.44;;;0.64;nan
9261;BME280;4667;42.726;23.252;2023-01-29T03:16:21;95408.84;;;0.63;nan
9261;BME280;4667;42.726;23.252;2023-01-29T03:18:56;95413.88;;;0.65;nan
9261;BME280;4667;42.726;23.252;2023-01-29T03:21:29;95414.94;;;0.72;nan
9261;BME280;4667;42.726;23.252;2023-01-29T03:24:24;95412.75;;;0.66;nan
9261;BME280;4667;42.726;23.252;2023-01-29T03:27:11;95413.88;;;0.65;nan
9261;BME280;4667;42.726;23.252;2023-01-29T03:29:58;95417.94;;;0.62;nan
9261;BME280;4667;42.726;23.252;2023-01-29T03:32:47;95421.41;;;0.54;nan
9261;BME280;4667;42.726;23.252;2023-01-29T03:35:22;95416.25;;;0.49;nan
9261;BME280;4667;42.726;23.252;2023-01-29T03:40:59;95420.97;;;0.52;nan
9261;BME280;4667;42.726;23.252;2023-01-29T03:43:33;95415.66;;;0.44;nan
9261;BME280;4667;42.726;23.252;2023-01-29T03:46:06;95429.75;;;0.53;nan
9261;BME280;4667;42.726;23.252;2023-01-29T03:48:47;95422.19;;;0.55;nan
9261;BME280;4667;42.726;23.252;2023-01-29T03:51:25;95418.31;;;0.52;nan
9261;BME280;4667;42.726;23.252;2023-01-29T03:53:58;95413.88;;;0.56;nan
9261;BME280;4667;42.726;23.252;2023-01-29T03:56:36;95415.63;;;0.52;nan
9261;BME280;4667;42.726;23.252;2023-01-29T03:59:24;95423.25;;;0.71;nan
9261;BME280;4667;42.726;23.252;2023-01-29T04:02:01;95423.81;;;0.47;nan
9261;BME280;4667;42.726;23.252;2023-01-29T04:04:33;95421.03;;;0.73;nan
9261;BME280;4667;42.726;23.252;2023-01-29T04:07:07;95413.22;;;0.68;nan
9261;BME280;4667;42.726;23.252;2023-01-29T04:09:39;95417.97;;;0.54;nan
9261;BME280;4667;42.726;23.252;2023-01-29T04:12:09;95419.53;;;0.55;nan
9261;BME280;4667;42.726;23.252;2023-01-29T04:14:38;95422.00;;;0.68;nan
9261;BME280;4667;42.726;23.252;2023-01-29T04:17:08;95427.03;;;0.61;nan
9261;BME280;4667;42.726;23.252;2023-01-29T04:19:40;95425.94;;;0.62;nan
9261;BME280;4667;42.726;23.252;2023-01-29T04:22:11;95430.13;;;0.80;nan
9261;BME280;4667;42.726;23.252;2023-01-29T04:24:41;95431.41;;;0.66;nan
9261;BME280;4667;42.726;23.252;2023-01-29T04:27:22;95430.97;;;0.55;nan
9261;BME280;4667;42.726;23.252;2023-01-29T04:30:01;95434.78;;;0.46;nan
9261;BME280;4667;42.726;23.252;2023-01-29T04:32:40;95436.47;;;0.50;nan
9261;BME280;4667;42.726;23.252;2023-01-29T04:35:23;95431.28;;;0.62;nan
9261;BME280;4667;42.726;23.252;2023-01-29T04:38:00;95431.91;;;0.59;nan
9261;BME280;4667;42.726;23.252;2023-01-29T04:40:41;95431.94;;;0.42;nan
9261;BME280;4667;42.726;23.252;2023-01-29T04:43:18;95433.47;;;0.60;nan
9261;BME280;4667;42.726;23.252;2023-01-29T04:45:52;95434.06;;;0.74;nan
9261;BME280;4667;42.726;23.252;2023-01-29T04:48:29;95428.78;;;0.57;nan
9261;BME280;4667;42.726;23.252;2023-01-29T04:51:04;95440.41;;;0.53;nan
9261;BME280;4667;42.726;23.252;2023-01-29T04:53:42;95440.06;;;0.54;nan
9261;BME280;4667;42.726;23.252;2023-01-29T04:56:17;95439.44;;;0.57;nan
9261;BME280;4667;42.726;23.252;2023-01-29T04:58:50;95446.56;;;0.27;nan
9261;BME280;4667;42.726;23.252;2023-01-29T05:01:21;95439.19;;;0.24;nan
9261;BME280;4667;42.726;23.252;2023-01-29T05:03:53;95442.31;;;0.26;nan
9261;BME280;4667;42.726;23.252;2023-01-29T05:06:23;95442.97;;;0.23;nan
9261;BME280;4667;42.726;23.252;2023-01-29T05:08:52;95439.97;;;0.25;nan
9261;BME280;4667;42.726;23.252;2023-01-29T05:11:22;95443.41;;;0.25;nan
9261;BME280;4667;42.726;23.252;2023-01-29T05:13:52;95454.50;;;0.36;nan
9261;BME280;4667;42.726;23.252;2023-01-29T05:16:23;95444.50;;;0.42;nan
9261;BME280;4667;42.726;23.252;2023-01-29T05:18:52;95443.06;;;0.53;nan
9261;BME280;4667;42.726;23.252;2023-01-29T05:21:23;95449.63;;;0.55;nan
9261;BME280;4667;42.726;23.252;2023-01-29T05:24:06;95446.69;;;0.39;nan
9261;BME280;4667;42.726;23.252;2023-01-29T05:29:17;95454.22;;;0.46;nan
9261;BME280;4667;42.726;23.252;2023-01-29T05:31:44;95453.75;;;0.35;nan
9261;BME280;4667;42.726;23.252;2023-01-29T05:34:11;95459.84;;;0.53;nan
9261;BME280;4667;42.726;23.252;2023-01-29T05:36:40;95458.06;;;0.66;nan
9261;BME280;4667;42.726;23.252;2023-01-29T05:39:08;95457.81;;;0.42;nan
9261;BME280;4667;42.726;23.252;2023-01-29T05:41:35;95468.59;;;0.54;nan
9261;BME280;4667;42.726;23.252;2023-01-29T05:44:04;95468.28;;;0.55;nan
9261;BME280;4667;42.726;23.252;2023-01-29T05:49:18;95467.31;;;0.68;nan
9261;BME280;4667;42.726;23.252;2023-01-29T05:51:48;95459.66;;;0.58;nan
9261;BME280;4667;42.726;23.252;2023-01-29T05:54:15;95473.31;;;0.65;nan
9261;BME280;4667;42.726;23.252;2023-01-29T05:56:42;95467.31;;;0.68;nan
9261;BME280;4667;42.726;23.252;2023-01-29T05:59:10;95479.84;;;0.76;nan
9261;BME280;4667;42.726;23.252;2023-01-29T06:01:38;95476.34;;;0.93;nan
9261;BME280;4667;42.726;23.252;2023-01-29T06:04:04;95485.91;;;0.94;nan
9261;BME280;4667;42.726;23.252;2023-01-29T06:06:32;95479.88;;;1.14;nan
9261;BME280;4667;42.726;23.252;2023-01-29T06:09:03;95486.69;;;0.95;nan
9261;BME280;4667;42.726;23.252;2023-01-29T06:11:30;95486.28;;;1.22;nan
9261;BME280;4667;42.726;23.252;2023-01-29T06:14:03;95486.03;;;0.98;nan
9261;BME280;4667;42.726;23.252;2023-01-29T06:16:32;95487.16;;;0.97;nan
9261;BME280;4667;42.726;23.252;2023-01-29T06:19:00;95503.38;;;1.21;nan
9261;BME280;4667;42.726;23.252;2023-01-29T06:21:28;95497.59;;;1.19;nan
9261;BME280;4667;42.726;23.252;2023-01-29T06:23:55;95506.75;;;1.39;nan
9261;BME280;4667;42.726;23.252;2023-01-29T06:26:24;95500.22;;;1.28;nan
9261;BME280;4667;42.726;23.252;2023-01-29T06:28:51;95510.56;;;1.29;nan
9261;BME280;4667;42.726;23.252;2023-01-29T06:31:18;95512.81;;;1.18;nan
9261;BME280;4667;42.726;23.252;2023-01-29T06:33:45;95516.47;;;1.05;nan
9261;BME280;4667;42.726;23.252;2023-01-29T06:36:13;95510.09;;;0.80;nan
9261;BME280;4667;42.726;23.252;2023-01-29T06:38:41;95523.19;;;1.11;nan
9261;BME280;4667;42.726;23.252;2023-01-29T06:41:09;95525.97;;;0.77;nan
9261;BME280;4667;42.726;23.252;2023-01-29T06:43:38;95526.44;;;0.70;nan
9261;BME280;4667;42.726;23.252;2023-01-29T06:46:09;95532.38;;;0.67;nan
9261;BME280;4667;42.726;23.252;2023-01-29T06:48:38;95520.91;;;0.84;nan
9261;BME280;4667;42.726;23.252;2023-01-29T06:51:07;95526.81;;;1.07;nan
9261;BME280;4667;42.726;23.252;2023-01-29T06:53:43;95525.03;;;1.19;nan
9261;BME280;4667;42.726;23.252;2023-01-29T06:56:29;95535.69;;;1.19;nan
9261;BME280;4667;42.726;23.252;2023-01-29T06:59:07;95531.06;;;1.46;nan
9261;BME280;4667;42.726;23.252;2023-01-29T07:02:01;95527.78;;;1.40;nan
9261;BME280;4667;42.726;23.252;2023-01-29T07:04:45;95527.38;;;1.21;nan
9261;BME280;4667;42.726;23.252;2023-01-29T07:07:26;95537.31;;;1.50;nan
9261;BME280;4667;42.726;23.252;2023-01-29T07:09:56;95541.75;;;1.75;nan
9261;BME280;4667;42.726;23.252;2023-01-29T07:15:38;95557.84;;;1.58;nan
9261;BME280;4667;42.726;23.252;2023-01-29T07:18:06;95545.09;;;1.63;nan
9261;BME280;4667;42.726;23.252;2023-01-29T07:20:48;95559.84;;;1.70;nan
9261;BME280;4667;42.726;23.252;2023-01-29T07:24:09;95552.81;;;1.65;nan
9261;BME280;4667;42.726;23.252;2023-01-29T07:26:40;95562.22;;;1.62;nan
9261;BME280;4667;42.726;23.252;2023-01-29T07:29:08;95562.81;;;1.68;nan
9261;BME280;4667;42.726;23.252;2023-01-29T07:31:37;95556.44;;;1.60;nan
9261;BME280;4667;42.726;23.252;2023-01-29T07:34:10;95558.03;;;1.53;nan
9261;BME280;4667;42.726;23.252;2023-01-29T07:36:47;95564.34;;;1.48;nan
9261;BME280;4667;42.726;23.252;2023-01-29T07:41:54;95565.56;;;1.51;nan
9261;BME280;4667;42.726;23.252;2023-01-29T07:51:20;95567.28;;;1.55;nan
9261;BME280;4667;42.726;23.252;2023-01-29T07:53:49;95570.53;;;1.70;nan
9261;BME280;4667;42.726;23.252;2023-01-29T07:56:45;95560.03;;;1.64;nan
9261;BME280;4667;42.726;23.252;2023-01-29T08:02:02;95572.31;;;1.57;nan
9261;BME280;4667;42.726;23.252;2023-01-29T08:04:33;95574.97;;;1.57;nan
9261;BME280;4667;42.726;23.252;2023-01-29T08:09:11;95569.19;;;1.55;nan
9261;BME280;4667;42.726;23.252;2023-01-29T08:10:48;95572.72;;;1.68;nan
9261;BME280;4667;42.726;23.252;2023-01-29T08:16:07;95578.34;;;1.75;nan
9261;BME280;4667;42.726;23.252;2023-01-29T08:34:46;95589.28;;;1.90;nan
9261;BME280;4667;42.726;23.252;2023-01-29T09:10:11;95622.47;;;2.10;nan
9261;BME280;4667;42.726;23.252;2023-01-29T09:45:55;95593.75;;;2.07;nan
9261;BME280;4667;42.726;23.252;2023-01-29T09:48:26;95596.81;;;2.38;nan
9261;BME280;4667;42.726;23.252;2023-01-29T10:01:01;95586.84;;;2.27;nan
9261;BME280;4667;42.726;23.252;2023-01-29T10:22:44;95568.22;;;1.89;nan
9261;BME280;4667;42.726;23.252;2023-01-29T10:37:52;95569.69;;;2.07;nan
9261;BME280;4667;42.726;23.252;2023-01-29T10:45:37;95566.63;;;1.96;nan
9261;BME280;4667;42.726;23.252;2023-01-29T10:53:33;95559.25;;;1.55;nan
9261;BME280;4667;42.726;23.252;2023-01-29T10:56:18;95554.22;;;1.62;nan
9261;BME280;4667;42.726;23.252;2023-01-29T11:14:05;95554.56;;;1.90;nan
9261;BME280;4667;42.726;23.252;2023-01-29T11:39:46;95517.97;;;2.12;nan
